Pagrindinis puslapis
METAR-TAF:

METAR-TAF

Oro uostai :

Aghajari, Iranas

platuma: 30-46N, ilguma: 049-40E, Aukštis: 29 m

Dabartinis oras

Ataskaita buvo paskelbta 6 valandos ir 52 minutes, ne 17:00 UTC
Vėjas 6 kt iš Šiaurės
Temperatūra 29°C
Drėgmė 27%
Slėgis 1012 hPa
Matomumas 10 km arba daugiau
nėra debesų žemiau 1500 m ir nėra kamuolinių lietaus debesų

METAR: OIAG 181700Z 35006KT CAVOK 29/08 Q1012

Laikas: 03:22 (23:52 UTC)


TAF: trūkstamas

Orai ataskaitas ir orų prognozės (METAR, TAF).

turimą stotys yra geltonos ir raudonos taškus žemėlapyje.

Perkelti pele per norėdami pamatyti stoties vardą.

Tada spustelėkite, norėdami matyti oro stebėjimo ir prognozės.

Norėdami pakeisti žemėlapį: spustelėkite ant žalios mygtukų su juodo kryžiaus žemyn,; žalią mygtuką su brūkšneliu, jei norite nutolinti; arba žalių rodyklių gretimoms žemėlapius.


METAR-TAF: